CheckWX is a tool to help pilots better visualize weather data.  It is not intended as a substitute for an official pre-flight weather briefing.

08:03:10 UTC

MMSL TAF
Cabo San Lucas International Airport
Cabo San Lucas, Mexico
TAF MMSL 190449Z 1906/2006 29004KT P6SM SKC FM191800 13010KT P6SM SKC BECMG 2003/2005 32006KT

Mar-19@
06:00 UTC

Mar-19 @ 06:00 UTC

Mar-19@
18:00 UTC

Mar-19 @ 18:00 UTC

TAF MMSL 190449Z 1906/2006 29004KT P6SM SKC
Wind
  • 290° at 4 KTS
Cloud Levels
  • Clear skies

Mar-19@
18:00 UTC

Mar-19 @ 18:00 UTC

Mar-20@
03:00 UTC

Mar-20 @ 03:00 UTC

FM191800 13010KT P6SM SKC

From

From Standard forecast or significant change

Wind
  • 130° at 10 KTS
Cloud Levels
  • Clear skies

Mar-20@
03:00 UTC

Mar-20 @ 03:00 UTC

Mar-20@
06:00 UTC

Mar-20 @ 06:00 UTC

BECMG 2003/2005 32006KT

Becoming

Becoming Conditions expected by Wed, Mar 20, 2019 @ 05:00 UTC

Wind
  • 320° at 6 KTS
Cloud Levels
  • Clear skies